Time;durP1;ratioP1;P1;durP2;ratioP2;P2;SDS_P1;SDS_P2;PMS_P1;PMS_P2;Temp;Humidity;BMP_temperature;BMP_pressure;BME280_temperature;BME280_humidity;BME280_pressure;Samples;Min_cycle;Max_cycle;Signal;HPM_P1;HPM_P2
2022/11/15 00:18:29;;;;;;;2.67;1.50;;;;;;;10.04;100.00;98539.00;4981371;28;20156;-73
2022/11/15 00:20:55;;;;;;;3.58;1.63;;;;;;;10.06;100.00;98545.00;4985517;28;20037;-73
2022/11/15 00:23:20;;;;;;;4.35;1.60;;;;;;;9.91;100.00;98522.78;4992388;28;20018;-73
2022/11/15 00:25:45;;;;;;;2.63;1.40;;;;;;;9.88;100.00;98532.94;4992525;28;20388;-74
2022/11/15 00:28:11;;;;;;;4.25;1.70;;;;;;;9.86;100.00;98539.59;4989390;28;20114;-73
2022/11/15 00:30:36;;;;;;;4.93;1.75;;;;;;;9.77;100.00;98533.56;5011527;28;20072;-73
2022/11/15 00:33:04;;;;;;;4.28;1.90;;;;;;;9.61;100.00;98523.09;4990988;28;20480;-73
2022/11/15 00:35:32;;;;;;;2.45;1.45;;;;;;;9.56;100.00;98529.16;4983707;28;20037;-73
2022/11/15 00:37:57;;;;;;;3.05;2.08;;;;;;;9.38;100.00;98527.00;4984716;28;20519;-74
2022/11/15 00:40:22;;;;;;;4.78;2.00;;;;;;;9.24;100.00;98524.44;4991011;28;20117;-73
2022/11/15 00:42:48;;;;;;;3.08;1.92;;;;;;;9.17;100.00;98519.03;4990487;28;20143;-73
2022/11/15 00:45:13;;;;;;;4.97;1.77;;;;;;;9.04;100.00;98521.66;4991408;28;20076;-73
2022/11/15 00:47:38;;;;;;;5.13;1.88;;;;;;;9.08;100.00;98528.31;4992860;28;20076;-73
2022/11/15 00:50:04;;;;;;;4.45;2.30;;;;;;;9.09;100.00;98527.28;4991147;28;20026;-73
2022/11/15 00:52:29;;;;;;;4.93;1.90;;;;;;;8.92;100.00;98519.53;4990353;28;20479;-73
2022/11/15 00:54:55;;;;;;;6.00;2.45;;;;;;;8.86;100.00;98527.59;4983737;28;20061;-73
2022/11/15 00:57:20;;;;;;;7.50;2.28;;;;;;;8.60;100.00;98506.69;4989317;28;20049;-73
2022/11/15 00:59:45;;;;;;;4.95;2.30;;;;;;;8.51;100.00;98523.03;4989356;28;20112;-73
2022/11/15 01:02:10;;;;;;;4.13;2.13;;;;;;;8.45;100.00;98513.03;4991226;28;20494;-73
2022/11/15 01:04:36;;;;;;;4.55;2.28;;;;;;;8.33;100.00;98509.16;4990666;28;20030;-73
2022/11/15 01:07:01;;;;;;;5.38;2.75;;;;;;;8.46;100.00;98521.94;4991617;28;20038;-73
2022/11/15 01:09:26;;;;;;;8.98;2.58;;;;;;;8.28;100.00;98508.94;4989728;28;20029;-73
2022/11/15 01:11:52;;;;;;;4.90;2.25;;;;;;;8.21;100.00;98503.50;4987629;28;20712;-73
2022/11/15 01:14:17;;;;;;;5.47;2.47;;;;;;;8.34;100.00;98508.16;4990717;28;20022;-73
2022/11/15 01:16:42;;;;;;;5.07;2.60;;;;;;;8.25;100.00;98514.69;4992436;28;20037;-73
2022/11/15 01:19:08;;;;;;;4.03;2.63;;;;;;;8.24;100.00;98502.25;4985889;28;20054;-73
2022/11/15 01:21:33;;;;;;;7.78;2.70;;;;;;;7.95;100.00;98492.50;4991046;28;20046;-73
2022/11/15 01:23:58;;;;;;;5.18;3.10;;;;;;;7.52;100.00;98458.34;4986228;28;20022;-73
2022/11/15 01:26:24;;;;;;;6.55;2.67;;;;;;;7.59;100.00;98504.16;4987168;28;20027;-73
2022/11/15 01:28:50;;;;;;;7.40;2.42;;;;;;;7.52;100.00;98497.88;4989353;28;20037;-73
2022/11/15 01:31:18;;;;;;;5.80;2.30;;;;;;;7.46;100.00;98504.84;4982992;28;20026;-73
2022/11/15 01:33:43;;;;;;;5.20;2.17;;;;;;;7.38;100.00;98497.75;4987218;28;20042;-73
2022/11/15 01:36:15;;;;;;;4.63;2.25;;;;;;;7.34;100.00;98487.56;4990347;28;20045;-73
2022/11/15 01:38:40;;;;;;;3.78;2.83;;;;;;;7.30;100.00;98502.41;4987503;28;20057;-73
2022/11/15 01:41:06;;;;;;;5.07;2.00;;;;;;;7.22;100.00;98492.59;4992878;28;20062;-73
2022/11/15 01:43:34;;;;;;;7.32;2.47;;;;;;;7.28;100.00;98499.06;4990041;28;20076;-73
2022/11/15 01:46:03;;;;;;;7.93;2.95;;;;;;;7.22;100.00;98497.97;4984012;28;20034;-73
2022/11/15 01:48:33;;;;;;;4.57;2.95;;;;;;;7.03;100.00;98486.78;4989489;28;20117;-73
2022/11/15 01:51:02;;;;;;;5.68;3.30;;;;;;;6.83;100.00;98488.38;4989717;28;20037;-73
2022/11/15 01:53:29;;;;;;;4.97;3.17;;;;;;;6.73;100.00;98499.44;4990985;28;20104;-73
2022/11/15 01:55:55;;;;;;;6.13;3.50;;;;;;;6.67;100.00;98499.34;4992125;28;20484;-73
2022/11/15 01:58:21;;;;;;;6.03;2.90;;;;;;;6.55;100.00;98491.75;4987701;28;20034;-73
2022/11/15 02:00:47;;;;;;;6.82;3.15;;;;;;;6.52;100.00;98480.53;5006056;28;20114;-73
2022/11/15 02:03:13;;;;;;;5.97;3.33;;;;;;;6.51;100.00;98487.75;4989459;28;20037;-73
2022/11/15 02:05:40;;;;;;;4.10;2.47;;;;;;;6.50;100.00;98486.09;4991237;28;20031;-73
2022/11/15 02:08:06;;;;;;;5.15;2.80;;;;;;;6.59;100.00;98497.59;4986387;28;20507;-73
2022/11/15 02:10:32;;;;;;;4.20;2.47;;;;;;;6.62;100.00;98510.66;4983475;28;20030;-73
2022/11/15 02:13:00;;;;;;;4.32;2.47;;;;;;;6.59;100.00;98503.78;4988087;28;20030;-73
2022/11/15 02:15:38;;;;;;;3.63;2.50;;;;;;;6.64;100.00;98495.19;4991690;28;20027;-73
2022/11/15 02:18:17;;;;;;;5.28;2.30;;;;;;;6.52;100.00;98483.22;4999940;28;20026;-73
2022/11/15 02:20:54;;;;;;;9.73;2.30;;;;;;;6.61;100.00;98495.56;4987992;28;20061;-73
2022/11/15 02:24:02;;;;;;;3.58;2.08;;;;;;;6.39;100.00;98454.28;4990163;28;20121;-73
2022/11/15 02:26:50;;;;;;;3.80;2.08;;;;;;;6.59;100.00;98486.84;4992002;28;20037;-73
2022/11/15 02:29:15;;;;;;;3.25;1.80;;;;;;;6.57;100.00;98484.31;4983012;28;20109;-73
2022/11/15 02:32:00;;;;;;;6.97;2.50;;;;;;;6.54;100.00;98473.94;4991468;28;20105;-73
2022/11/15 02:34:35;;;;;;;4.22;2.30;;;;;;;6.53;100.00;98466.91;4978289;28;20023;-73
2022/11/15 02:37:11;;;;;;;4.22;2.47;;;;;;;6.65;100.00;98469.94;4973387;28;20023;-73
2022/11/15 02:40:05;;;;;;;3.15;2.10;;;;;;;6.84;100.00;98473.09;4987572;28;20432;-73
2022/11/15 02:46:02;;;;;;;8.32;2.40;;;;;;;7.08;100.00;98450.44;4985096;28;20049;-73
2022/11/15 02:48:28;;;;;;;5.72;2.10;;;;;;;7.19;100.00;98444.56;4991264;28;20661;-73
2022/11/15 02:50:54;;;;;;;2.67;1.80;;;;;;;7.19;100.00;98440.00;4985263;28;20092;-73
2022/11/15 02:53:24;;;;;;;4.10;1.70;;;;;;;7.31;100.00;98442.16;4995733;28;20443;-73
2022/11/15 02:55:51;;;;;;;4.70;2.38;;;;;;;7.39;100.00;98442.06;5012197;22;20046;-77
2022/11/15 02:58:39;;;;;;;7.78;3.70;;;;;;;7.32;100.00;98443.88;5008444;28;20730;-75
2022/11/15 03:01:30;;;;;;;9.68;3.72;;;;;;;7.17;100.00;98442.03;5001538;28;20030;-75
2022/11/15 03:04:14;;;;;;;9.85;3.33;;;;;;;7.02;100.00;98447.47;5020846;28;20037;-74
2022/11/15 03:06:51;;;;;;;7.95;3.40;;;;;;;6.95;100.00;98449.25;4993578;28;20031;-75
2022/11/15 03:09:33;;;;;;;7.78;3.08;;;;;;;6.89;100.00;98438.41;5006007;28;20073;-75
2022/11/15 03:12:11;;;;;;;5.18;2.80;;;;;;;6.80;100.00;98435.00;5009552;28;20101;-75
2022/11/15 03:14:45;;;;;;;9.17;3.50;;;;;;;6.84;100.00;98446.19;4996615;28;20046;-75
2022/11/15 03:17:30;;;;;;;7.40;3.35;;;;;;;6.82;100.00;98435.66;5003784;28;20026;-75
2022/11/15 03:20:03;;;;;;;6.53;3.78;;;;;;;6.82;100.00;98440.19;4984105;28;20026;-75
2022/11/15 03:22:33;;;;;;;6.35;3.22;;;;;;;6.84;100.00;98438.13;4981401;28;20026;-75
2022/11/15 03:25:03;;;;;;;5.82;3.45;;;;;;;6.79;100.00;98433.34;4979888;28;20027;-75
2022/11/15 03:27:34;;;;;;;7.10;3.80;;;;;;;6.70;100.00;98424.53;5000915;28;20027;-75
2022/11/15 03:30:03;;;;;;;7.82;3.35;;;;;;;6.63;100.00;98426.31;4977878;28;20034;-75
2022/11/15 03:32:32;;;;;;;9.38;3.60;;;;;;;6.49;100.00;98422.59;4999088;28;20030;-77
2022/11/15 03:35:01;;;;;;;9.40;3.38;;;;;;;6.42;100.00;98428.91;4992959;28;20030;-76
2022/11/15 03:37:35;;;;;;;6.38;3.13;;;;;;;6.42;100.00;98428.91;5010786;28;20033;-77
2022/11/15 03:40:02;;;;;;;8.43;3.20;;;;;;;6.26;100.00;98420.03;5009804;28;20034;-77
2022/11/15 03:42:34;;;;;;;6.95;3.40;;;;;;;6.17;100.00;98412.25;5013048;28;20018;-77
2022/11/15 03:45:06;;;;;;;6.20;2.92;;;;;;;6.14;100.00;98416.97;5002489;28;20034;-78
2022/11/15 03:47:36;;;;;;;5.30;2.85;;;;;;;6.11;100.00;98416.50;4997054;28;20025;-78
2022/11/15 03:50:08;;;;;;;5.63;3.03;;;;;;;6.04;100.00;98413.72;5013711;28;20049;-77
2022/11/15 03:52:34;;;;;;;7.90;3.05;;;;;;;5.89;100.00;98416.38;5007555;28;20026;-76
2022/11/15 03:55:02;;;;;;;6.00;3.03;;;;;;;6.02;100.00;98420.28;5007595;28;20023;-77
2022/11/15 03:57:28;;;;;;;5.00;2.88;;;;;;;5.95;100.00;98405.91;4997984;28;20027;-77
2022/11/15 03:59:53;;;;;;;6.28;2.97;;;;;;;6.01;100.00;98424.00;5002901;28;20042;-78
2022/11/15 04:02:19;;;;;;;6.75;3.00;;;;;;;5.93;100.00;98415.00;4997251;28;20412;-75
2022/11/15 04:04:44;;;;;;;4.60;2.75;;;;;;;5.92;100.00;98425.88;4998893;28;20481;-75
2022/11/15 04:07:10;;;;;;;6.72;3.00;;;;;;;5.79;100.00;98407.75;4994591;28;20035;-76
2022/11/15 04:10:01;;;;;;;7.32;3.30;;;;;;;5.78;100.00;98418.66;4992886;28;20026;-75
2022/11/15 04:12:40;;;;;;;5.57;3.20;;;;;;;5.74;100.00;98412.81;4990978;28;20094;-75
2022/11/15 04:15:08;;;;;;;5.10;3.30;;;;;;;5.75;100.00;98402.91;4989498;28;20096;-78
2022/11/15 04:17:38;;;;;;;10.02;3.70;;;;;;;5.87;100.00;98415.72;4977861;28;20034;-76
2022/11/15 04:25:36;;;;;;;7.07;3.83;;;;;;;6.25;100.00;98404.94;4983080;28;20137;-76
2022/11/15 04:28:01;;;;;;;6.47;3.50;;;;;;;6.31;100.00;98404.19;4990583;28;20073;-76
2022/11/15 04:30:27;;;;;;;8.38;3.97;;;;;;;6.32;100.00;98405.03;4988742;28;20031;-75
2022/11/15 04:32:52;;;;;;;10.30;4.32;;;;;;;6.32;100.00;98403.16;4988501;28;20030;-76
2022/11/15 04:35:17;;;;;;;10.05;5.07;;;;;;;6.39;100.00;98399.72;4988667;28;20026;-75
2022/11/15 04:37:43;;;;;;;10.48;4.45;;;;;;;6.44;100.00;98391.94;4982041;28;20030;-75
2022/11/15 04:40:08;;;;;;;8.18;4.22;;;;;;;6.51;100.00;98384.81;5005790;28;20395;-75
2022/11/15 04:42:33;;;;;;;6.38;3.50;;;;;;;6.51;100.00;98379.44;4998495;28;20025;-75
2022/11/15 04:44:59;;;;;;;6.35;3.40;;;;;;;6.62;100.00;98388.88;4990552;28;20026;-77
2022/11/15 04:47:24;;;;;;;5.50;3.45;;;;;;;6.63;100.00;98385.16;4997563;28;20033;-75
2022/11/15 04:49:49;;;;;;;5.80;3.35;;;;;;;6.61;100.00;98390.72;5009958;28;20164;-76
2022/11/15 04:52:15;;;;;;;7.50;3.75;;;;;;;6.57;100.00;98371.44;4994178;28;20380;-77
2022/11/15 04:54:41;;;;;;;7.65;3.45;;;;;;;6.68;100.00;98380.03;4996525;28;20053;-76
2022/11/15 04:57:07;;;;;;;13.18;4.20;;;;;;;6.69;100.00;98385.25;4997596;28;20030;-75
2022/11/15 04:59:32;;;;;;;10.75;3.97;;;;;;;6.68;100.00;98372.81;4981155;28;20480;-79
2022/11/15 05:01:57;;;;;;;9.38;3.90;;;;;;;6.77;100.00;98384.28;4979012;28;20036;-76
2022/11/15 05:04:23;;;;;;;7.03;3.75;;;;;;;6.70;100.00;98367.25;4980369;28;20388;-77
2022/11/15 05:06:50;;;;;;;6.75;3.63;;;;;;;6.68;100.00;98358.53;4979195;28;20153;-77
2022/11/15 05:09:19;;;;;;;6.35;3.67;;;;;;;6.70;100.00;98378.00;4989986;28;20019;-76
2022/11/15 05:11:45;;;;;;;11.57;3.72;;;;;;;6.70;100.00;98364.56;4986290;28;20121;-77
2022/11/15 05:14:10;;;;;;;5.72;3.10;;;;;;;6.67;100.00;98365.78;5008874;28;21468;-80
2022/11/15 05:16:41;;;;;;;10.45;3.95;;;;;;;6.68;100.00;98367.47;4975419;28;20019;-80
2022/11/15 05:19:07;;;;;;;13.68;4.20;;;;;;;6.60;100.00;98364.84;5003497;28;20481;-77
2022/11/15 05:21:32;;;;;;;9.38;4.03;;;;;;;6.51;100.00;98349.88;4983657;28;20065;-76
2022/11/15 05:24:38;;;;;;;6.18;3.00;;;;;;;6.49;100.00;98362.66;5023044;28;20009;-81
2022/11/15 05:27:38;;;;;;;6.00;2.83;;;;;;;6.17;100.00;98321.75;4997056;28;20031;-82
2022/11/15 05:36:48;;;;;;;8.68;4.28;;;;;;;5.84;100.00;98351.66;4999833;28;20058;-79
2022/11/15 05:39:14;;;;;;;6.63;2.90;;;;;;;5.93;100.00;98366.69;4996816;28;20080;-77
2022/11/15 05:41:46;;;;;;;7.85;3.60;;;;;;;5.75;100.00;98360.78;4986605;28;20030;-75
2022/11/15 05:44:16;;;;;;;5.32;3.38;;;;;;;5.63;100.00;98359.56;4987131;28;20053;-78
2022/11/15 05:46:42;;;;;;;6.82;3.25;;;;;;;5.56;100.00;98351.44;4980052;28;20023;-75
2022/11/15 05:49:13;;;;;;;6.82;3.70;;;;;;;5.45;100.00;98350.03;4989959;28;20037;-79
2022/11/15 05:51:39;;;;;;;7.22;3.85;;;;;;;5.44;100.00;98359.06;4988561;28;20039;-78
2022/11/15 05:54:05;;;;;;;9.35;4.25;;;;;;;5.39;100.00;98348.03;4987265;28;20026;-76
2022/11/15 05:56:31;;;;;;;7.30;4.38;;;;;;;5.39;100.00;98360.63;4979441;28;20018;-77
2022/11/15 05:58:58;;;;;;;9.25;4.82;;;;;;;5.43;100.00;98365.47;5004248;28;20562;-78
2022/11/15 06:01:25;;;;;;;8.45;4.60;;;;;;;5.43;100.00;98357.41;4977861;28;20476;-78
2022/11/15 06:03:51;;;;;;;11.65;4.85;;;;;;;5.50;100.00;98362.88;5009939;28;20033;-80
2022/11/15 06:06:16;;;;;;;14.18;4.53;;;;;;;5.53;100.00;98373.25;5006972;28;20026;-80
2022/11/15 06:08:41;;;;;;;7.68;4.35;;;;;;;5.37;100.00;98350.09;5000420;28;20035;-79
2022/11/15 06:11:07;;;;;;;9.48;4.65;;;;;;;5.62;100.00;98376.69;4991344;28;20038;-79
2022/11/15 06:13:33;;;;;;;10.13;4.05;;;;;;;5.58;100.00;98370.00;4993434;28;20030;-79
2022/11/15 06:15:59;;;;;;;7.57;4.20;;;;;;;5.69;100.00;98364.22;4987650;28;20487;-80
2022/11/15 06:18:24;;;;;;;8.05;4.35;;;;;;;5.72;100.00;98367.38;4988663;28;20022;-78
2022/11/15 06:20:49;;;;;;;8.55;3.88;;;;;;;5.74;100.00;98375.25;4977085;28;20031;-78
2022/11/15 06:23:15;;;;;;;9.48;3.70;;;;;;;5.66;100.00;98364.59;5002730;28;20137;-79
2022/11/15 06:25:40;;;;;;;6.72;3.90;;;;;;;5.67;100.00;98372.44;4982716;28;20034;-81
2022/11/15 06:28:05;;;;;;;8.88;4.25;;;;;;;5.56;100.00;98339.88;4990089;28;20043;-80
2022/11/15 06:30:30;;;;;;;10.57;4.90;;;;;;;5.71;100.00;98367.53;4984663;28;20109;-78
2022/11/15 06:33:01;;;;;;;14.73;5.20;;;;;;;5.85;100.00;98382.00;5009944;28;20466;-81
2022/11/15 06:35:26;;;;;;;18.80;6.47;;;;;;;5.85;100.00;98361.38;5001932;28;20029;-79
2022/11/15 06:37:52;;;;;;;9.05;4.63;;;;;;;5.94;100.00;98370.19;5001745;28;20022;-78
2022/11/15 06:40:17;;;;;;;5.88;3.10;;;;;;;5.97;100.00;98353.69;4975923;28;20027;-78
2022/11/15 06:42:42;;;;;;;8.73;3.63;;;;;;;5.90;100.00;98342.03;4995026;28;20030;-78
2022/11/15 06:45:08;;;;;;;8.02;3.88;;;;;;;6.04;100.00;98367.25;4993063;28;20030;-76
2022/11/15 06:47:33;;;;;;;14.50;4.57;;;;;;;6.00;100.00;98353.34;4985058;28;20465;-80
2022/11/15 06:49:59;;;;;;;10.27;4.53;;;;;;;6.05;100.00;98355.47;4992816;28;20061;-80
2022/11/15 06:52:24;;;;;;;7.75;3.95;;;;;;;6.09;100.00;98364.84;4986241;28;20021;-79
2022/11/15 06:54:49;;;;;;;6.05;3.65;;;;;;;6.19;100.00;98370.75;4984520;28;20034;-78
2022/11/15 06:57:14;;;;;;;5.93;3.28;;;;;;;6.13;100.00;98358.06;4977932;28;20030;-78
2022/11/15 06:59:40;;;;;;;7.32;3.35;;;;;;;6.25;100.00;98366.50;4987090;28;20039;-79
2022/11/15 07:02:05;;;;;;;6.75;3.45;;;;;;;6.38;100.00;98368.53;4989371;28;20431;-78
2022/11/15 07:04:30;;;;;;;7.05;3.13;;;;;;;6.39;100.00;98348.69;4996985;28;20030;-77
2022/11/15 07:06:56;;;;;;;5.10;3.00;;;;;;;6.55;100.00;98351.19;4983428;28;20027;-78
2022/11/15 07:09:21;;;;;;;7.50;3.00;;;;;;;6.73;100.00;98340.84;4979004;28;20105;-79
2022/11/15 07:11:46;;;;;;;6.68;2.80;;;;;;;6.73;100.00;98338.16;4987935;28;20060;-79
2022/11/15 07:14:12;;;;;;;7.07;3.58;;;;;;;6.94;100.00;98350.78;4981836;28;20034;-80
2022/11/15 07:16:37;;;;;;;10.07;3.60;;;;;;;6.99;100.00;98334.03;4983473;28;20033;-79
2022/11/15 07:19:03;;;;;;;6.63;3.20;;;;;;;7.11;100.00;98351.34;4979960;28;20029;-78
2022/11/15 07:21:28;;;;;;;6.35;3.05;;;;;;;7.14;100.00;98348.25;4989852;28;20149;-76
2022/11/15 07:23:53;;;;;;;4.78;3.20;;;;;;;7.23;100.00;98344.44;4977273;28;20035;-77
2022/11/15 07:26:19;;;;;;;5.72;3.63;;;;;;;7.37;100.00;98345.38;4994599;28;20152;-81
2022/11/15 07:28:44;;;;;;;7.70;3.50;;;;;;;7.58;100.00;98347.19;5013608;28;20069;-75
2022/11/15 07:31:10;;;;;;;6.75;2.88;;;;;;;8.00;100.00;98331.94;5013952;28;20030;-76
2022/11/15 07:33:36;;;;;;;7.72;3.45;;;;;;;9.07;100.00;98324.28;5002318;28;20022;-79
2022/11/15 07:36:04;;;;;;;4.13;2.88;;;;;;;9.66;100.00;98307.25;4996228;28;20022;-79
2022/11/15 07:38:30;;;;;;;6.90;2.67;;;;;;;9.89;100.00;98320.31;4994997;28;20030;-78
2022/11/15 07:40:57;;;;;;;6.72;3.40;;;;;;;10.83;100.00;98318.94;5009243;28;20096;-77
2022/11/15 07:43:22;;;;;;;4.82;3.00;;;;;;;12.14;100.00;98311.03;4982128;28;20037;-76
2022/11/15 07:45:48;;;;;;;8.68;2.95;;;;;;;12.98;100.00;98320.19;4988632;28;20042;-78
2022/11/15 07:48:13;;;;;;;7.13;3.13;;;;;;;13.05;100.00;98317.38;4980180;28;20030;-78
2022/11/15 07:50:42;;;;;;;6.60;2.60;;;;;;;12.96;100.00;98316.88;4984871;28;20102;-76
2022/11/15 07:53:08;;;;;;;12.30;3.13;;;;;;;13.23;100.00;98317.31;4992203;28;20042;-79
2022/11/15 07:55:34;;;;;;;8.32;3.22;;;;;;;14.06;100.00;98311.97;4983639;28;20038;-79
2022/11/15 07:58:07;;;;;;;15.68;3.33;;;;;;;15.84;97.83;98322.75;4993511;28;20512;-79
2022/11/15 08:00:34;;;;;;;7.65;2.95;;;;;;;18.00;75.48;98313.19;4997962;28;20559;-77
2022/11/15 08:03:08;;;;;;;4.18;2.22;;;;;;;19.87;64.02;98312.38;4992272;28;20027;-77
2022/11/15 08:05:35;;;;;;;5.72;2.30;;;;;;;20.67;57.63;98304.25;4989799;28;20105;-78
2022/11/15 08:08:03;;;;;;;6.03;2.38;;;;;;;21.35;54.72;98314.59;4974423;28;20689;-78
2022/11/15 08:10:28;;;;;;;4.03;2.20;;;;;;;22.24;52.39;98297.06;4988978;28;20113;-78
2022/11/15 08:12:59;;;;;;;4.43;2.20;;;;;;;22.41;50.14;98304.88;4980825;28;20563;-79
2022/11/15 08:15:24;;;;;;;5.65;2.05;;;;;;;20.49;53.49;98280.13;4990839;28;20022;-77
2022/11/15 08:17:57;;;;;;;3.85;2.03;;;;;;;18.42;59.36;98309.56;4980521;28;20033;-77
2022/11/15 08:20:23;;;;;;;4.38;2.63;;;;;;;16.65;67.54;98305.84;4978904;28;20433;-79
2022/11/15 08:22:48;;;;;;;9.07;2.40;;;;;;;15.56;82.70;98307.25;4985086;28;20062;-74
2022/11/15 08:25:14;;;;;;;7.22;2.60;;;;;;;15.01;93.79;98303.34;4989721;28;20384;-75
2022/11/15 08:27:39;;;;;;;10.45;2.70;;;;;;;14.63;100.00;98302.06;4990766;28;20085;-81
2022/11/15 08:30:05;;;;;;;9.35;2.70;;;;;;;14.15;100.00;98286.91;4989321;28;20504;-79
2022/11/15 08:32:31;;;;;;;4.38;2.55;;;;;;;13.64;100.00;98296.59;4996565;28;20029;-77
2022/11/15 08:34:56;;;;;;;4.13;2.33;;;;;;;13.52;100.00;98283.03;4993585;28;20114;-74
2022/11/15 08:37:22;;;;;;;5.80;2.60;;;;;;;13.05;100.00;98288.34;4991423;28;20022;-74
2022/11/15 08:39:47;;;;;;;4.25;2.35;;;;;;;13.48;100.00;98291.88;4983056;28;20542;-74
2022/11/15 08:42:14;;;;;;;4.90;2.38;;;;;;;13.18;100.00;98281.88;4992110;28;20033;-74
2022/11/15 08:44:40;;;;;;;6.95;2.40;;;;;;;13.58;100.00;98282.06;4994058;28;20057;-78
2022/11/15 08:47:05;;;;;;;6.30;2.70;;;;;;;15.43;100.00;98274.88;4997682;28;20066;-80
2022/11/15 08:49:30;;;;;;;4.38;2.60;;;;;;;15.30;93.41;98262.41;4990645;28;20026;-78
2022/11/15 08:51:55;;;;;;;6.90;3.00;;;;;;;14.64;100.00;98268.31;4981366;28;20061;-77
2022/11/15 08:54:21;;;;;;;7.85;2.42;;;;;;;14.68;100.00;98269.50;4985395;28;20254;-77
2022/11/15 08:56:46;;;;;;;8.52;2.85;;;;;;;15.03;100.00;98260.31;5030843;22;20049;-78
2022/11/15 08:59:11;;;;;;;3.30;2.30;;;;;;;16.41;84.22;98259.69;4994419;28;20033;-74
2022/11/15 09:01:36;;;;;;;6.80;2.83;;;;;;;17.71;74.26;98257.91;4993069;28;20034;-75
2022/11/15 09:04:03;;;;;;;4.00;2.50;;;;;;;18.65;68.62;98253.50;4990789;28;20026;-75
2022/11/15 09:06:29;;;;;;;5.32;2.35;;;;;;;19.56;65.07;98248.44;4990248;28;20085;-73
2022/11/15 09:08:54;;;;;;;3.28;2.17;;;;;;;21.23;58.01;98253.59;4983498;28;20412;-75
2022/11/15 09:11:21;;;;;;;5.75;2.40;;;;;;;21.86;55.57;98247.31;4993437;28;20034;-79
2022/11/15 09:13:46;;;;;;;6.70;2.38;;;;;;;21.48;54.75;98246.28;4998070;28;20080;-78
2022/11/15 09:16:12;;;;;;;13.18;2.80;;;;;;;20.02;58.45;98240.16;5005612;28;20030;-76
2022/11/15 09:18:38;;;;;;;5.82;2.58;;;;;;;20.43;58.72;98243.56;4988406;28;20070;-77
2022/11/15 09:21:04;;;;;;;8.18;3.10;;;;;;;19.83;59.90;98250.88;4994307;28;20068;-77
2022/11/15 09:23:29;;;;;;;8.32;3.20;;;;;;;19.20;61.79;98256.66;4991016;28;20513;-77
2022/11/15 09:26:03;;;;;;;4.97;2.90;;;;;;;18.38;65.01;98254.50;4990452;28;20026;-77
2022/11/15 09:28:30;;;;;;;11.85;2.78;;;;;;;17.77;68.01;98240.47;4988628;28;20048;-76
2022/11/15 09:30:57;;;;;;;6.80;2.80;;;;;;;17.43;71.29;98250.88;4991651;28;20495;-76
2022/11/15 09:33:22;;;;;;;7.63;2.10;;;;;;;18.00;70.99;98255.69;4992218;28;20132;-76
2022/11/15 09:35:48;;;;;;;11.50;2.50;;;;;;;18.70;69.46;98244.47;4985657;28;20034;-77
2022/11/15 09:38:13;;;;;;;6.60;2.47;;;;;;;18.71;66.76;98243.38;4987536;28;20392;-74
2022/11/15 09:40:38;;;;;;;6.75;3.03;;;;;;;18.48;68.40;98233.72;4973158;28;20476;-75
2022/11/15 09:43:51;;;;;;;6.45;2.60;;;;;;;17.38;72.88;98238.00;5005935;28;20049;-78
2022/11/15 09:46:22;;;;;;;7.28;2.95;;;;;;;17.13;76.83;98245.97;4946119;28;20597;-76
2022/11/15 09:48:54;;;;;;;4.57;2.20;;;;;;;17.55;76.91;98239.75;4937448;29;20079;-76
2022/11/15 09:51:30;;;;;;;5.13;2.25;;;;;;;17.52;78.63;98246.56;4970870;28;20113;-76
2022/11/15 09:54:02;;;;;;;4.15;2.22;;;;;;;17.68;77.86;98244.75;4995409;28;20141;-86
2022/11/15 09:56:30;;;;;;;12.23;2.30;;;;;;;17.99;75.46;98223.09;4985977;28;20026;-76
2022/11/15 09:59:35;;;;;;;4.80;1.83;;;;;;;19.62;70.29;98234.44;4989483;28;20034;-76
2022/11/15 10:02:27;;;;;;;5.18;1.95;;;;;;;19.57;66.30;98220.72;4996314;28;20041;-76
2022/11/15 10:04:53;;;;;;;6.63;2.10;;;;;;;20.51;62.94;98221.03;4996865;28;20030;-79
2022/11/15 10:07:26;;;;;;;3.00;2.00;;;;;;;21.87;58.61;98221.38;4989867;28;20088;-78
2022/11/15 10:10:01;;;;;;;5.45;2.08;;;;;;;21.89;55.95;98231.00;5002565;28;20040;-77
2022/11/15 10:12:28;;;;;;;4.75;2.17;;;;;;;20.66;59.35;98222.88;4994339;28;20026;-76
2022/11/15 10:15:15;;;;;;;5.78;2.40;;;;;;;18.81;65.66;98216.84;4994451;28;20034;-76
2022/11/15 10:17:52;;;;;;;4.90;2.45;;;;;;;17.84;71.27;98212.88;4984881;28;20030;-78
2022/11/15 10:20:21;;;;;;;4.03;2.42;;;;;;;17.47;73.98;98200.03;4989655;28;20083;-78
2022/11/15 10:22:52;;;;;;;3.35;2.15;;;;;;;17.34;74.33;98214.97;4989764;28;20049;-75
2022/11/15 10:25:27;;;;;;;7.03;2.28;;;;;;;16.50;78.75;98204.59;4985288;28;20032;-75
2022/11/15 10:27:55;;;;;;;5.85;2.55;;;;;;;16.04;85.50;98201.34;5003417;28;20036;-74
2022/11/15 10:30:22;;;;;;;5.93;2.88;;;;;;;15.80;94.83;98182.50;4983413;28;20392;-75
2022/11/15 10:32:49;;;;;;;6.80;2.40;;;;;;;15.83;94.32;98187.44;4987077;28;20035;-75
2022/11/15 10:35:24;;;;;;;6.80;2.35;;;;;;;15.55;99.30;98172.84;4993134;28;20046;-75
2022/11/15 10:37:50;;;;;;;10.02;3.17;;;;;;;15.80;100.00;98177.03;5000977;28;20443;-75
2022/11/15 10:40:19;;;;;;;8.43;2.75;;;;;;;15.70;100.00;98180.44;4989910;28;20088;-75
2022/11/15 10:42:45;;;;;;;;;;;;;;;15.52;100.00;98180.72;4992152;28;20037;-75
2022/11/15 10:45:30;;;;;;;7.75;3.08;;;;;;;15.12;100.00;98185.28;4992396;28;19918;-75
2022/11/15 10:48:13;;;;;;;6.07;2.78;;;;;;;15.50;100.00;98177.41;4987945;28;20514;-75
2022/11/15 10:50:44;;;;;;;8.25;2.92;;;;;;;15.27;100.00;98160.19;4991689;28;20026;-81
2022/11/15 10:53:32;;;;;;;4.70;2.47;;;;;;;15.46;100.00;98168.91;4987314;28;20456;-75
2022/11/15 10:56:11;;;;;;;9.65;2.83;;;;;;;15.18;100.00;98169.03;4984219;28;20064;-79
2022/11/15 10:58:50;;;;;;;4.88;2.30;;;;;;;15.06;100.00;98150.88;4989946;28;20037;-75
2022/11/15 11:01:21;;;;;;;4.35;2.42;;;;;;;15.17;100.00;98160.03;4994333;28;20061;-77
2022/11/15 11:04:00;;;;;;;4.70;2.10;;;;;;;15.16;100.00;98160.25;4988417;28;20031;-77
2022/11/15 11:06:26;;;;;;;6.70;2.45;;;;;;;15.00;100.00;98146.41;4984481;28;20038;-78
2022/11/15 11:09:03;;;;;;;5.93;2.63;;;;;;;14.81;100.00;98158.63;4990784;28;20644;-79
2022/11/15 11:11:49;;;;;;;6.30;2.42;;;;;;;14.69;100.00;98150.50;4993304;28;20510;-80
2022/11/15 11:14:31;;;;;;;6.93;3.22;;;;;;;14.46;100.00;98152.28;4996987;28;20037;-79
2022/11/15 11:17:21;;;;;;;7.43;2.80;;;;;;;14.38;100.00;98146.38;4988316;28;20022;-78
2022/11/15 11:19:54;;;;;;;3.88;2.22;;;;;;;14.31;100.00;98153.88;4992412;28;20030;-76
2022/11/15 11:22:26;;;;;;;4.80;2.78;;;;;;;14.43;100.00;98149.19;4994517;28;20022;-76
2022/11/15 11:25:10;;;;;;;7.07;2.70;;;;;;;14.54;100.00;98144.78;4989565;28;20027;-78
2022/11/15 11:28:24;;;;;;;6.95;2.65;;;;;;;14.43;100.00;98139.13;4992307;28;20484;-78
2022/11/15 11:31:06;;;;;;;5.80;2.70;;;;;;;14.57;100.00;98147.88;4990807;28;21628;-76
2022/11/15 11:33:37;;;;;;;5.75;3.58;;;;;;;14.40;100.00;98145.06;4986295;28;20030;-79
2022/11/15 11:36:26;;;;;;;6.78;2.92;;;;;;;14.36;100.00;98137.66;4993996;28;20026;-74
2022/11/15 11:38:57;;;;;;;4.60;2.58;;;;;;;14.25;100.00;98136.63;4996817;28;20117;-77
2022/11/15 11:41:43;;;;;;;9.98;4.03;;;;;;;14.38;100.00;98138.22;4992930;28;20050;-77
2022/11/15 11:44:18;;;;;;;16.13;6.32;;;;;;;14.36;100.00;98107.72;4988867;28;20046;-78
2022/11/15 11:47:03;;;;;;;11.90;6.57;;;;;;;14.50;100.00;98130.00;5003264;28;20369;-77
2022/11/15 11:49:45;;;;;;;11.88;4.80;;;;;;;14.64;100.00;98128.63;4991217;28;20029;-76
2022/11/15 11:52:27;;;;;;;9.38;4.20;;;;;;;14.74;100.00;98117.91;4991123;28;20027;-79
2022/11/15 11:54:53;;;;;;;7.90;3.83;;;;;;;14.76;100.00;98112.25;4984897;28;20065;-77
2022/11/15 11:57:32;;;;;;;8.82;3.47;;;;;;;14.85;100.00;98094.41;4991741;28;20061;-75
2022/11/15 12:00:04;;;;;;;8.20;3.53;;;;;;;15.40;100.00;98107.19;4989602;28;20037;-78
2022/11/15 12:02:36;;;;;;;7.93;4.13;;;;;;;15.63;100.00;98083.50;4987969;28;20022;-76
2022/11/15 12:05:12;;;;;;;17.77;6.57;;;;;;;15.75;100.00;98097.88;4988765;28;20038;-75
2022/11/15 12:07:40;;;;;;;13.63;5.22;;;;;;;15.83;100.00;98091.16;5002570;28;20027;-74
2022/11/15 12:10:15;;;;;;;11.90;5.38;;;;;;;15.95;100.00;98068.09;4989474;28;20029;-75
2022/11/15 12:13:07;;;;;;;12.57;5.15;;;;;;;16.23;100.00;98071.66;4991201;28;20030;-75
2022/11/15 12:15:43;;;;;;;13.10;5.90;;;;;;;16.37;100.00;98078.38;4996079;28;20030;-72
2022/11/15 12:18:14;;;;;;;15.40;7.28;;;;;;;16.37;100.00;98072.91;4980433;28;20484;-73